Dexter, Kansas
Current Conditions -  °F | °C
As of 7:54 PM on Monday 22 Dec 2014 (Local Time) from KWLD Reporting Station
Scattered Clouds Scattered Clouds  
Wind Chill: 36°   Ceiling: Unl
Heat Index: 40°   Visibility: 10mi
Dew Point: 35°   Wind: 6mph
Humidity: 83%   Direction: 230°SW
Pressure: 29.64"   Gusts: NA
Location:  37.18°N, 96.71°W
Report Text: KWLD 230154Z AUTO 23005KT 10SM SCT070 04/02 A2964 RMK AO2 SLP039 T00440017
Loading
Personal Weather Stations






























Interactive Weather Map New forecast layout! Learn more

10-Day Weather Forecast

Advertisements
Track Severe Weather on mobile